Terminal Aerodrome Forecast
Issued by NWS

Home | Current Version | Previous Version | Text Only | Print | Product List | Glossary On
Versions: 1 2 3 4 5 6 7 8 9 10 11 12 13 14 15 16 17 18 19 20 21 22 23 24 25 26 27
000
FTUS43 KGRB 230531
TAFRHI
TAF
KRHI 230531Z 2306/2406 21007KT P6SM BKN250 WS012/22040KT
      TEMPO 2306/2310 3SM BR
     FM231000 21005KT 4SM BR SCT250 WS012/22040KT
      TEMPO 2310/2314 2SM BR
     FM231400 22010G17KT P6SM SCT035 BKN250
     FM240000 17004KT P6SM SCT250=

USA.gov is the U.S. government's official web portal to all federal, state and local government web resources and services.